createdAt,value
2018-08-06T00:00:09.323Z,20.19
2018-08-06T00:01:09.320Z,20.06
2018-08-06T00:02:09.315Z,20.10
2018-08-06T00:03:09.326Z,20.06
2018-08-06T00:04:09.312Z,20.09
2018-08-06T00:05:09.307Z,20.07
2018-08-06T00:06:09.308Z,19.95
2018-08-06T00:07:09.310Z,19.95
2018-08-06T00:08:09.302Z,20.02
2018-08-06T00:09:09.305Z,20.04
2018-08-06T00:10:09.300Z,19.99
2018-08-06T00:11:09.304Z,19.88
2018-08-06T00:12:09.307Z,19.96
2018-08-06T00:13:09.298Z,19.95
2018-08-06T00:14:09.293Z,19.91
2018-08-06T00:15:09.293Z,19.91
2018-08-06T00:16:09.292Z,19.89
2018-08-06T00:17:09.286Z,19.92
2018-08-06T00:18:09.284Z,19.88
2018-08-06T00:19:09.283Z,19.88
2018-08-06T00:20:09.282Z,19.77
2018-08-06T00:21:09.276Z,19.79
2018-08-06T00:22:09.289Z,19.69
2018-08-06T00:23:09.283Z,19.76
2018-08-06T00:24:09.269Z,19.77
2018-08-06T00:25:09.266Z,19.77
2018-08-06T00:26:09.266Z,19.74
2018-08-06T00:27:09.263Z,19.73
2018-08-06T00:28:09.264Z,19.73
2018-08-06T00:29:09.259Z,19.69
2018-08-06T00:30:09.252Z,19.63
2018-08-06T00:31:09.253Z,19.67
2018-08-06T00:32:09.251Z,19.71
2018-08-06T00:33:09.252Z,19.70
2018-08-06T00:34:09.266Z,19.64
2018-08-06T00:35:09.264Z,19.66
2018-08-06T00:36:09.245Z,19.66
2018-08-06T00:37:09.244Z,19.66
2018-08-06T00:38:09.265Z,19.66
2018-08-06T00:39:09.235Z,19.63
2018-08-06T00:40:09.231Z,19.66
2018-08-06T00:41:09.241Z,19.56
2018-08-06T00:42:09.227Z,19.54
2018-08-06T00:43:09.227Z,19.62
2018-08-06T00:44:09.227Z,19.52
2018-08-06T00:45:09.227Z,19.48
2018-08-06T00:46:09.232Z,19.54
2018-08-06T00:47:09.219Z,19.54
2018-08-06T00:48:09.213Z,19.55
2018-08-06T00:49:09.216Z,19.56
2018-08-06T00:50:09.213Z,19.48
2018-08-06T00:51:09.210Z,19.47
2018-08-06T00:52:09.209Z,19.44
2018-08-06T00:53:09.202Z,19.45
2018-08-06T00:54:09.200Z,19.45
2018-08-06T00:55:09.198Z,19.45
2018-08-06T00:56:09.198Z,19.41
2018-08-06T00:57:09.199Z,19.40
2018-08-06T00:58:09.193Z,19.27
2018-08-06T00:59:09.192Z,19.30
2018-08-06T01:00:09.191Z,19.30
2018-08-06T01:01:09.186Z,19.39
2018-08-06T01:02:09.190Z,19.37
2018-08-06T01:03:09.181Z,19.36
2018-08-06T01:04:09.181Z,19.30
2018-08-06T01:05:09.174Z,19.16
2018-08-06T01:06:09.183Z,19.29
2018-08-06T01:07:09.169Z,19.30
2018-08-06T01:08:09.170Z,19.33
2018-08-06T01:09:09.163Z,19.24
2018-08-06T01:10:09.161Z,19.22
2018-08-06T01:11:09.161Z,19.19
2018-08-06T01:12:09.178Z,19.29
2018-08-06T01:13:09.154Z,19.21
2018-08-06T01:14:09.152Z,19.22
2018-08-06T01:15:09.157Z,19.26
2018-08-06T01:16:09.148Z,19.29
2018-08-06T01:17:09.155Z,19.21
2018-08-06T01:18:09.141Z,19.27
2018-08-06T01:19:09.149Z,19.21
2018-08-06T01:20:09.139Z,19.19
2018-08-06T01:21:09.137Z,19.19
2018-08-06T01:22:09.134Z,19.16
2018-08-06T01:23:09.130Z,19.12
2018-08-06T01:24:09.128Z,19.08
2018-08-06T01:25:09.129Z,19.04
2018-08-06T01:26:09.122Z,19.04
2018-08-06T01:27:09.125Z,19.09
2018-08-06T01:28:09.122Z,19.07
2018-08-06T01:29:09.116Z,19.00
2018-08-06T01:30:09.148Z,19.00
2018-08-06T01:31:09.111Z,18.93
2018-08-06T01:32:09.112Z,18.89
2018-08-06T01:33:09.108Z,18.89
2018-08-06T01:34:09.106Z,18.96
2018-08-06T01:35:09.106Z,18.90
2018-08-06T01:36:09.100Z,18.96
2018-08-06T01:37:09.095Z,18.98
2018-08-06T01:38:09.095Z,18.99
2018-08-06T01:39:09.093Z,18.89
2018-08-06T01:40:09.093Z,18.90
2018-08-06T01:41:09.087Z,18.92
2018-08-06T01:42:09.086Z,18.93
2018-08-06T01:43:09.082Z,18.90
2018-08-06T01:44:09.079Z,18.95
2018-08-06T01:45:09.079Z,18.89
2018-08-06T01:46:09.075Z,18.92
2018-08-06T01:47:09.075Z,18.95
2018-08-06T01:48:09.074Z,18.88
2018-08-06T01:49:09.072Z,18.90
2018-08-06T01:50:09.063Z,18.78
2018-08-06T01:51:09.063Z,18.80
2018-08-06T01:52:09.063Z,18.74
2018-08-06T01:53:09.059Z,18.74
2018-08-06T01:54:09.056Z,18.70
2018-08-06T01:55:09.054Z,18.71
2018-08-06T01:56:09.056Z,18.70
2018-08-06T01:57:09.046Z,18.71
2018-08-06T01:58:09.046Z,18.78
2018-08-06T01:59:09.042Z,18.84
2018-08-06T02:00:09.037Z,18.78
2018-08-06T02:01:09.036Z,18.75
2018-08-06T02:02:09.035Z,18.89
2018-08-06T02:03:09.034Z,18.77
2018-08-06T02:04:09.035Z,18.74
2018-08-06T02:05:09.024Z,18.75
2018-08-06T02:06:09.028Z,18.71
2018-08-06T02:07:09.055Z,18.77
2018-08-06T02:08:09.022Z,18.83
2018-08-06T02:09:09.027Z,18.80
2018-08-06T02:10:09.017Z,18.70
2018-08-06T02:11:09.014Z,18.71
2018-08-06T02:12:09.009Z,18.77
2018-08-06T02:13:09.006Z,18.71
2018-08-06T02:14:09.022Z,18.66
2018-08-06T02:15:09.013Z,18.68
2018-08-06T02:16:09.013Z,18.74
2018-08-06T02:17:08.997Z,18.70
2018-08-06T02:18:08.993Z,18.65
2018-08-06T02:19:09.010Z,18.60
2018-08-06T02:20:08.990Z,18.62
2018-08-06T02:21:09.011Z,18.63
2018-08-06T02:22:09.013Z,18.55
2018-08-06T02:23:08.982Z,18.58
2018-08-06T02:24:08.981Z,18.53
2018-08-06T02:25:08.974Z,18.56
2018-08-06T02:26:08.978Z,18.50
2018-08-06T02:27:08.964Z,18.41
2018-08-06T02:28:08.964Z,18.37
2018-08-06T02:29:08.964Z,18.38
2018-08-06T02:30:08.963Z,18.37
2018-08-06T02:31:08.965Z,18.26
2018-08-06T02:32:08.964Z,18.23
2018-08-06T02:33:08.951Z,18.22
2018-08-06T02:34:08.949Z,18.22
2018-08-06T02:35:08.944Z,18.15
2018-08-06T02:36:08.949Z,18.10
2018-08-06T02:37:08.947Z,18.11
2018-08-06T02:38:08.942Z,18.04
2018-08-06T02:39:08.939Z,18.05
2018-08-06T02:40:08.933Z,18.03
2018-08-06T02:41:08.930Z,17.95
2018-08-06T02:42:08.925Z,17.98
2018-08-06T02:43:08.922Z,17.87
2018-08-06T02:44:08.925Z,17.94
2018-08-06T02:45:08.921Z,17.89
2018-08-06T02:46:08.921Z,17.89
2018-08-06T02:47:08.917Z,17.92
2018-08-06T02:48:08.909Z,17.90
2018-08-06T02:49:08.907Z,17.89
2018-08-06T02:50:08.921Z,17.85
2018-08-06T02:51:08.904Z,17.87
2018-08-06T02:52:08.904Z,17.87
2018-08-06T02:53:08.899Z,17.89
2018-08-06T02:54:08.894Z,17.83
2018-08-06T02:55:08.891Z,17.82
2018-08-06T02:56:08.895Z,17.80
2018-08-06T02:57:08.892Z,17.85
2018-08-06T02:58:08.882Z,17.82
2018-08-06T02:59:08.882Z,17.82
2018-08-06T03:00:08.900Z,17.80
2018-08-06T03:01:08.878Z,17.83
2018-08-06T03:02:08.872Z,17.71
2018-08-06T03:03:08.866Z,17.67
2018-08-06T03:04:08.863Z,17.83
2018-08-06T03:05:08.860Z,17.74
2018-08-06T03:06:08.861Z,17.65
2018-08-06T03:07:08.857Z,17.68
2018-08-06T03:08:08.855Z,17.74
2018-08-06T03:09:08.852Z,17.65
2018-08-06T03:10:08.888Z,17.67
2018-08-06T03:11:08.845Z,17.65
2018-08-06T03:12:08.847Z,17.72
2018-08-06T03:13:08.841Z,17.70
2018-08-06T03:14:08.836Z,17.71
2018-08-06T03:15:08.840Z,17.74
2018-08-06T03:16:08.855Z,17.70
2018-08-06T03:17:08.823Z,17.65
2018-08-06T03:18:08.826Z,17.79
2018-08-06T03:19:08.821Z,17.67
2018-08-06T03:20:08.832Z,17.72
2018-08-06T03:21:08.815Z,17.71
2018-08-06T03:22:08.813Z,17.74
2018-08-06T03:23:08.809Z,17.67
2018-08-06T03:24:08.803Z,17.72
2018-08-06T03:25:08.798Z,17.54
2018-08-06T03:26:08.796Z,17.59
2018-08-06T03:27:08.798Z,17.68
2018-08-06T03:28:08.789Z,17.72
2018-08-06T03:29:08.795Z,17.70
2018-08-06T03:30:08.789Z,17.67
2018-08-06T03:31:08.786Z,17.67
2018-08-06T03:32:08.787Z,17.71
2018-08-06T03:33:08.774Z,17.65
2018-08-06T03:34:08.770Z,17.71
2018-08-06T03:35:08.775Z,17.64
2018-08-06T03:36:08.774Z,17.70
2018-08-06T03:37:08.762Z,17.85
2018-08-06T03:38:08.768Z,17.68
2018-08-06T03:39:08.761Z,17.71
2018-08-06T03:40:08.770Z,17.54
2018-08-06T03:41:08.754Z,17.54
2018-08-06T03:42:08.749Z,17.52
2018-08-06T03:43:08.750Z,17.57
2018-08-06T03:44:08.749Z,17.56
2018-08-06T03:45:08.743Z,17.54
2018-08-06T03:46:08.737Z,17.41
2018-08-06T03:47:08.735Z,17.42
2018-08-06T03:48:08.728Z,17.45
2018-08-06T03:49:08.730Z,17.31
2018-08-06T03:50:08.731Z,17.39
2018-08-06T03:51:08.724Z,17.29
2018-08-06T03:52:08.721Z,17.34
2018-08-06T03:53:08.714Z,17.33
2018-08-06T03:54:08.712Z,17.22
2018-08-06T03:55:08.709Z,17.19
2018-08-06T03:56:08.706Z,17.19
2018-08-06T03:57:08.708Z,17.22
2018-08-06T03:58:08.701Z,17.14
2018-08-06T03:59:08.698Z,17.12
2018-08-06T04:00:08.696Z,17.06
2018-08-06T04:01:08.691Z,17.12
2018-08-06T04:02:08.685Z,17.09
2018-08-06T04:03:08.687Z,17.15
2018-08-06T04:04:08.684Z,17.12
2018-08-06T04:05:08.679Z,17.14
2018-08-06T04:06:08.679Z,17.16
2018-08-06T04:07:08.671Z,17.15
2018-08-06T04:08:08.668Z,17.16
2018-08-06T04:09:08.671Z,17.24
2018-08-06T04:10:08.665Z,17.19
2018-08-06T04:11:08.661Z,17.09
2018-08-06T04:12:08.656Z,17.12
2018-08-06T04:13:08.655Z,17.11
2018-08-06T04:14:08.649Z,17.06
2018-08-06T04:15:08.646Z,17.06
2018-08-06T04:16:08.644Z,17.14
2018-08-06T04:17:08.643Z,17.06
2018-08-06T04:18:08.637Z,17.06
2018-08-06T04:19:08.644Z,17.08
2018-08-06T04:20:08.636Z,17.11
2018-08-06T04:21:08.627Z,17.09
2018-08-06T04:22:08.623Z,17.15
2018-08-06T04:23:08.620Z,17.08
2018-08-06T04:24:08.624Z,17.16
2018-08-06T04:25:08.617Z,17.12
2018-08-06T04:26:08.613Z,17.19
2018-08-06T04:27:08.613Z,17.14
2018-08-06T04:28:08.604Z,17.14
2018-08-06T04:29:08.601Z,17.08
2018-08-06T04:30:08.617Z,17.14
2018-08-06T04:31:08.598Z,17.04
2018-08-06T04:32:08.597Z,16.99
2018-08-06T04:33:08.680Z,17.08
2018-08-06T04:34:08.591Z,16.99
2018-08-06T04:35:08.601Z,17.11
2018-08-06T04:36:08.602Z,17.16
2018-08-06T04:37:08.578Z,17.19
2018-08-06T04:38:08.576Z,17.01
2018-08-06T04:39:08.572Z,17.16
2018-08-06T04:40:08.576Z,17.12
2018-08-06T04:41:08.567Z,17.06
2018-08-06T04:42:08.568Z,17.08
2018-08-06T04:43:08.556Z,17.08
2018-08-06T04:44:08.555Z,17.11
2018-08-06T04:45:08.558Z,17.09
2018-08-06T04:46:08.619Z,17.09
2018-08-06T04:47:08.546Z,17.11
2018-08-06T04:48:08.543Z,16.97
2018-08-06T04:49:08.536Z,17.09
2018-08-06T04:50:08.534Z,17.04
2018-08-06T04:51:08.529Z,17.11
2018-08-06T04:52:08.530Z,17.11
2018-08-06T04:53:08.527Z,17.09
2018-08-06T04:54:08.522Z,17.14
2018-08-06T04:55:08.519Z,17.12
2018-08-06T04:56:08.522Z,17.12
2018-08-06T04:57:08.513Z,17.23
2018-08-06T04:58:08.509Z,17.33
2018-08-06T04:59:08.521Z,17.39
2018-08-06T05:00:08.501Z,17.48
2018-08-06T05:01:08.498Z,17.49
2018-08-06T05:02:08.495Z,17.41
2018-08-06T05:03:08.494Z,17.38
2018-08-06T05:04:08.495Z,17.44
2018-08-06T05:05:08.487Z,17.41
2018-08-06T05:06:08.482Z,17.49
2018-08-06T05:07:08.486Z,17.60
2018-08-06T05:08:08.485Z,17.68
2018-08-06T05:09:08.478Z,17.74
2018-08-06T05:10:08.484Z,17.80
2018-08-06T05:11:08.471Z,17.85
2018-08-06T05:12:08.470Z,17.82
2018-08-06T05:13:08.495Z,17.83
2018-08-06T05:14:08.492Z,17.83
2018-08-06T05:15:08.461Z,17.83
2018-08-06T05:16:08.460Z,17.83
2018-08-06T05:17:08.462Z,17.80
2018-08-06T05:18:08.457Z,17.86
2018-08-06T05:19:08.454Z,17.98
2018-08-06T05:20:08.448Z,18.03
2018-08-06T05:21:08.453Z,18.07
2018-08-06T05:22:08.453Z,18.15
2018-08-06T05:23:08.453Z,18.25
2018-08-06T05:24:08.443Z,18.29
2018-08-06T05:25:08.455Z,18.40
2018-08-06T05:26:08.439Z,18.38
2018-08-06T05:27:08.487Z,18.56
2018-08-06T05:28:08.446Z,18.58
2018-08-06T05:29:08.441Z,18.58
2018-08-06T05:30:08.435Z,18.58
2018-08-06T05:31:08.437Z,18.66
2018-08-06T05:32:08.434Z,18.62
2018-08-06T05:33:08.426Z,18.75
2018-08-06T05:34:08.429Z,18.86
2018-08-06T05:35:08.431Z,18.92
2018-08-06T05:36:08.429Z,18.98
2018-08-06T05:37:08.436Z,19.08
2018-08-06T05:38:08.427Z,19.14
2018-08-06T05:39:08.426Z,19.16
2018-08-06T05:40:08.617Z,19.27
2018-08-06T05:41:08.424Z,19.27
2018-08-06T05:42:08.426Z,19.41
2018-08-06T05:43:08.422Z,19.49
2018-08-06T05:44:08.422Z,19.54
2018-08-06T05:45:08.426Z,19.62
2018-08-06T05:46:08.417Z,19.77
2018-08-06T05:47:08.417Z,19.88
2018-08-06T05:48:08.430Z,19.84
2018-08-06T05:49:08.420Z,19.91
2018-08-06T05:50:08.419Z,20.03
2018-08-06T05:51:08.417Z,20.04
2018-08-06T05:52:08.420Z,20.13
2018-08-06T05:53:08.415Z,20.21
2018-08-06T05:54:08.420Z,20.26
2018-08-06T05:55:08.418Z,20.37
2018-08-06T05:56:08.431Z,20.44
2018-08-06T05:57:08.422Z,20.48
2018-08-06T05:58:08.425Z,20.56
2018-08-06T05:59:08.430Z,20.59
2018-08-06T06:00:08.423Z,20.63
2018-08-06T06:01:08.422Z,20.81
2018-08-06T06:02:08.420Z,20.84
2018-08-06T06:03:08.426Z,20.77
2018-08-06T06:04:08.425Z,20.93
2018-08-06T06:05:08.429Z,21.05
2018-08-06T06:06:08.427Z,21.07
2018-08-06T06:07:08.440Z,21.07
2018-08-06T06:08:08.454Z,21.09
2018-08-06T06:09:08.449Z,21.03
2018-08-06T06:10:08.434Z,21.21
2018-08-06T06:11:08.456Z,21.36
2018-08-06T06:12:08.448Z,21.48
2018-08-06T06:13:08.439Z,21.72
2018-08-06T06:14:08.442Z,21.91
2018-08-06T06:15:08.449Z,22.11
2018-08-06T06:16:08.445Z,21.99
2018-08-06T06:17:08.449Z,22.14
2018-08-06T06:18:08.451Z,22.15
2018-08-06T06:19:08.471Z,22.25
2018-08-06T06:20:08.460Z,22.36
2018-08-06T06:21:08.450Z,22.53
2018-08-06T06:22:08.456Z,22.70
2018-08-06T06:23:08.461Z,22.73
2018-08-06T06:24:08.462Z,22.81
2018-08-06T06:25:08.468Z,22.84
2018-08-06T06:26:08.473Z,22.91
2018-08-06T06:27:08.480Z,22.96
2018-08-06T06:28:08.480Z,23.00
2018-08-06T06:29:08.483Z,22.80
2018-08-06T06:30:08.489Z,22.54
2018-08-06T06:31:08.495Z,22.45
2018-08-06T06:32:08.508Z,22.26
2018-08-06T06:33:08.497Z,22.14
2018-08-06T06:34:08.493Z,22.14
2018-08-06T06:35:08.495Z,22.13
2018-08-06T06:36:08.496Z,22.25
2018-08-06T06:37:08.496Z,22.39
2018-08-06T06:38:08.508Z,22.68
2018-08-06T06:39:08.514Z,22.83
2018-08-06T06:40:08.509Z,23.08
2018-08-06T06:41:08.508Z,23.10
2018-08-06T06:42:08.515Z,23.25
2018-08-06T06:43:08.519Z,23.25
2018-08-06T06:44:08.516Z,23.25
2018-08-06T06:45:08.520Z,23.37
2018-08-06T06:46:08.525Z,23.47
2018-08-06T06:47:08.521Z,23.54
2018-08-06T06:48:08.524Z,23.54
2018-08-06T06:49:08.535Z,23.54
2018-08-06T06:50:08.537Z,23.51
2018-08-06T06:51:08.539Z,23.50
2018-08-06T06:52:08.539Z,23.47
2018-08-06T06:53:08.560Z,23.32
2018-08-06T06:54:08.537Z,23.34
2018-08-06T06:55:08.553Z,23.37
2018-08-06T06:56:08.548Z,23.34
2018-08-06T06:57:08.554Z,23.58
2018-08-06T06:58:08.550Z,23.63
2018-08-06T06:59:08.553Z,23.63
2018-08-06T07:00:08.560Z,23.68
2018-08-06T07:01:08.561Z,23.76
2018-08-06T07:02:08.567Z,23.93
2018-08-06T07:03:09.503Z,24.01
2018-08-06T07:04:08.575Z,23.91
2018-08-06T07:05:08.567Z,23.80
2018-08-06T07:06:08.579Z,23.77
2018-08-06T07:07:08.580Z,23.74
2018-08-06T07:08:08.581Z,23.78
2018-08-06T07:09:08.583Z,23.76
2018-08-06T07:10:08.589Z,23.76
2018-08-06T07:11:08.589Z,23.80
2018-08-06T07:12:08.598Z,23.87
2018-08-06T07:13:08.597Z,24.06
2018-08-06T07:14:08.675Z,24.20
2018-08-06T07:15:08.614Z,24.48
2018-08-06T07:16:08.614Z,24.51
2018-08-06T07:17:08.609Z,24.66
2018-08-06T07:18:08.612Z,24.84
2018-08-06T07:19:08.617Z,25.10
2018-08-06T07:20:08.661Z,25.33
2018-08-06T07:21:08.623Z,25.75
2018-08-06T07:22:08.637Z,25.93
2018-08-06T07:23:08.635Z,26.06
2018-08-06T07:24:08.642Z,25.73
2018-08-06T07:25:08.657Z,25.62
2018-08-06T07:26:08.714Z,25.44
2018-08-06T07:27:08.646Z,25.41
2018-08-06T07:28:08.650Z,25.50
2018-08-06T07:29:08.655Z,25.69
2018-08-06T07:30:08.662Z,25.73
2018-08-06T07:31:08.662Z,25.90
2018-08-06T07:32:08.670Z,25.87
2018-08-06T07:33:08.675Z,25.78
2018-08-06T07:34:08.681Z,25.93
2018-08-06T07:35:08.687Z,26.19
2018-08-06T07:36:08.696Z,26.25
2018-08-06T07:37:08.703Z,26.10
2018-08-06T07:38:08.706Z,26.19
2018-08-06T07:39:08.706Z,26.18
2018-08-06T07:40:08.777Z,26.36
2018-08-06T07:41:08.720Z,26.73
2018-08-06T07:42:08.722Z,26.99
2018-08-06T07:43:08.738Z,27.10
2018-08-06T07:44:08.762Z,27.21
2018-08-06T07:45:10.621Z,27.39
2018-08-06T07:46:08.748Z,27.48
2018-08-06T07:47:08.798Z,27.40
2018-08-06T07:48:08.758Z,27.30
2018-08-06T07:49:08.759Z,27.21
2018-08-06T07:50:08.779Z,27.30
2018-08-06T07:51:08.810Z,27.10
2018-08-06T07:52:08.842Z,27.10
2018-08-06T07:53:08.792Z,27.10
2018-08-06T07:54:08.816Z,27.26
2018-08-06T07:55:08.818Z,27.44
2018-08-06T07:56:08.867Z,27.48
2018-08-06T07:57:08.866Z,27.58
2018-08-06T07:58:08.898Z,27.59
2018-08-06T07:59:09.660Z,27.77
2018-08-06T08:00:08.837Z,28.00
2018-08-06T08:01:09.868Z,28.27
2018-08-06T08:02:08.863Z,28.38
2018-08-06T08:03:08.928Z,28.35
2018-08-06T08:04:09.175Z,28.51
2018-08-06T08:05:08.889Z,28.75
2018-08-06T08:06:08.906Z,29.24
2018-08-06T08:07:08.899Z,29.60
2018-08-06T08:08:08.982Z,30.00
2018-08-06T08:09:09.026Z,30.34
2018-08-06T08:10:08.931Z,30.50
2018-08-06T08:11:09.143Z,30.51
2018-08-06T08:12:08.925Z,30.34
2018-08-06T08:13:09.095Z,29.93
2018-08-06T08:14:08.934Z,29.66
2018-08-06T08:15:09.065Z,29.44
2018-08-06T08:16:08.962Z,29.32
2018-08-06T08:17:08.990Z,29.56
2018-08-06T08:18:08.963Z,29.44
2018-08-06T08:19:09.213Z,29.24
2018-08-06T08:20:09.106Z,28.97
2018-08-06T08:21:09.524Z,28.66
2018-08-06T08:22:09.034Z,28.67
2018-08-06T08:23:09.004Z,28.69
2018-08-06T08:24:09.019Z,28.78
2018-08-06T08:25:09.026Z,28.97
2018-08-06T08:26:09.027Z,29.47
2018-08-06T08:27:09.037Z,30.03
2018-08-06T08:28:09.070Z,30.40
2018-08-06T08:29:09.051Z,30.66
2018-08-06T08:30:09.064Z,30.80
2018-08-06T08:31:09.094Z,30.77
2018-08-06T08:32:09.078Z,30.72
2018-08-06T08:33:09.089Z,30.46
2018-08-06T08:34:09.184Z,30.27
2018-08-06T08:35:09.103Z,30.28
2018-08-06T08:36:09.112Z,30.23
2018-08-06T08:37:09.122Z,30.13
2018-08-06T08:38:09.146Z,30.05
2018-08-06T08:39:09.162Z,29.88
2018-08-06T08:40:09.170Z,29.73
2018-08-06T08:41:09.157Z,29.97
2018-08-06T08:42:09.166Z,30.62
2018-08-06T08:43:09.173Z,31.00
2018-08-06T08:44:09.191Z,31.37
2018-08-06T08:45:09.218Z,31.46
2018-08-06T08:46:09.210Z,31.52
2018-08-06T08:47:09.209Z,31.24
2018-08-06T08:48:09.217Z,30.80
2018-08-06T08:49:09.230Z,30.47
2018-08-06T08:50:09.249Z,30.59
2018-08-06T08:51:09.246Z,30.43
2018-08-06T08:52:09.265Z,30.31
2018-08-06T08:53:09.261Z,30.39
2018-08-06T08:54:09.272Z,30.27
2018-08-06T08:55:09.279Z,30.19
2018-08-06T08:56:09.296Z,30.30
2018-08-06T08:57:09.336Z,30.40
2018-08-06T08:58:09.316Z,30.66
2018-08-06T08:59:09.337Z,30.68
2018-08-06T09:00:09.337Z,30.63
2018-08-06T09:01:09.341Z,30.68
2018-08-06T09:02:09.359Z,30.72
2018-08-06T09:03:09.359Z,30.92
2018-08-06T09:04:09.377Z,30.83
2018-08-06T09:05:09.384Z,31.03
2018-08-06T09:06:09.414Z,31.25
2018-08-06T09:07:09.404Z,31.31
2018-08-06T09:08:09.428Z,31.02
2018-08-06T09:09:09.418Z,30.44
2018-08-06T09:10:10.098Z,30.15
2018-08-06T09:11:09.433Z,30.19
2018-08-06T09:12:09.467Z,30.18
2018-08-06T09:13:09.460Z,30.15
2018-08-06T09:14:09.507Z,30.28
2018-08-06T09:15:09.476Z,30.09
2018-08-06T09:16:09.517Z,30.24
2018-08-06T09:17:09.519Z,30.57
2018-08-06T09:18:09.513Z,30.92
2018-08-06T09:19:09.520Z,31.25
2018-08-06T09:20:09.555Z,31.43
2018-08-06T09:21:09.590Z,31.43
2018-08-06T09:22:09.551Z,31.56
2018-08-06T09:23:09.571Z,31.46
2018-08-06T09:24:09.568Z,31.40
2018-08-06T09:25:09.581Z,31.73
2018-08-06T09:26:09.585Z,32.14
2018-08-06T09:27:09.606Z,32.71
2018-08-06T09:28:09.603Z,33.31
2018-08-06T09:29:09.617Z,33.95
2018-08-06T09:30:09.774Z,34.18
2018-08-06T09:31:09.659Z,34.50
2018-08-06T09:32:09.645Z,34.81
2018-08-06T09:33:09.668Z,35.19
2018-08-06T09:34:09.667Z,35.17
2018-08-06T09:35:09.686Z,35.14
2018-08-06T09:36:09.689Z,35.22
2018-08-06T09:37:09.699Z,35.26
2018-08-06T09:38:09.715Z,35.30
2018-08-06T09:39:09.720Z,35.48
2018-08-06T09:40:09.766Z,35.66
2018-08-06T09:41:09.739Z,35.60
2018-08-06T09:42:09.759Z,35.30
2018-08-06T09:43:09.764Z,34.80
2018-08-06T09:44:09.768Z,34.86
2018-08-06T09:45:09.787Z,35.05
2018-08-06T09:46:09.807Z,35.23
2018-08-06T09:47:09.806Z,35.34
2018-08-06T09:48:09.814Z,35.58
2018-08-06T09:49:09.827Z,35.53
2018-08-06T09:50:09.835Z,35.45
2018-08-06T09:51:09.854Z,35.42
2018-08-06T09:52:09.870Z,35.39
2018-08-06T09:53:09.888Z,35.68
2018-08-06T09:54:09.881Z,35.97
2018-08-06T09:55:09.896Z,35.78
2018-08-06T09:56:09.923Z,35.78
2018-08-06T09:57:09.970Z,35.22
2018-08-06T09:58:09.932Z,34.92
2018-08-06T09:59:09.952Z,34.54
2018-08-06T10:00:09.954Z,34.24
2018-08-06T10:01:09.965Z,34.06
2018-08-06T10:02:09.973Z,34.30
2018-08-06T10:03:12.986Z,34.40
2018-08-06T10:04:12.405Z,34.81
2018-08-06T10:05:12.717Z,34.97
2018-08-06T10:06:10.121Z,35.12
2018-08-06T10:07:11.089Z,35.24
2018-08-06T10:08:14.445Z,34.85
2018-08-06T10:09:12.980Z,34.88
2018-08-06T10:10:13.879Z,35.17
2018-08-06T10:11:10.180Z,35.56
2018-08-06T10:12:10.157Z,35.64
2018-08-06T10:13:10.265Z,35.86
2018-08-06T10:14:10.177Z,35.98
2018-08-06T10:15:10.310Z,36.04
2018-08-06T10:16:10.399Z,36.28
2018-08-06T10:17:10.156Z,36.70
2018-08-06T10:18:10.182Z,36.89
2018-08-06T10:19:10.274Z,36.79
2018-08-06T10:20:10.185Z,36.46
2018-08-06T10:21:10.200Z,36.08
2018-08-06T10:22:10.423Z,36.30
2018-08-06T10:23:10.366Z,36.58
2018-08-06T10:24:10.328Z,36.64
2018-08-06T10:25:10.299Z,36.43
2018-08-06T10:26:10.355Z,36.21
2018-08-06T10:27:10.445Z,36.45
2018-08-06T10:28:10.479Z,36.83
2018-08-06T10:29:10.347Z,37.03
2018-08-06T10:30:10.460Z,37.07
2018-08-06T10:31:10.321Z,37.14
2018-08-06T10:32:10.347Z,37.11
2018-08-06T10:33:10.368Z,37.13
2018-08-06T10:34:12.653Z,37.02
2018-08-06T10:35:10.583Z,36.79
2018-08-06T10:36:10.590Z,36.64
2018-08-06T10:37:10.497Z,36.18
2018-08-06T10:38:10.493Z,35.86
2018-08-06T10:39:10.438Z,35.46
2018-08-06T10:40:10.436Z,35.15
2018-08-06T10:41:10.440Z,35.12
2018-08-06T10:42:10.468Z,35.67
2018-08-06T10:43:10.466Z,36.02
2018-08-06T10:44:10.513Z,36.65
2018-08-06T10:45:10.519Z,37.11
2018-08-06T10:46:10.502Z,37.36
2018-08-06T10:47:10.526Z,37.75
2018-08-06T10:48:10.532Z,38.01
2018-08-06T10:49:10.538Z,38.06
2018-08-06T10:50:10.557Z,38.15
2018-08-06T10:51:10.572Z,38.24
2018-08-06T10:52:10.596Z,38.34
2018-08-06T10:53:10.594Z,38.42
2018-08-06T10:54:10.602Z,38.50
2018-08-06T10:55:10.619Z,38.34
2018-08-06T10:56:10.629Z,38.30
2018-08-06T10:57:10.642Z,37.94
2018-08-06T10:58:10.663Z,37.45
2018-08-06T10:59:10.677Z,36.62
2018-08-06T11:00:10.681Z,35.89
2018-08-06T11:01:10.701Z,35.66
2018-08-06T11:02:10.705Z,35.17
2018-08-06T11:03:10.717Z,35.11
2018-08-06T11:04:10.734Z,35.11
2018-08-06T11:05:10.740Z,35.76
2018-08-06T11:06:10.762Z,36.43
2018-08-06T11:07:10.769Z,37.01
2018-08-06T11:08:10.777Z,37.25
2018-08-06T11:09:10.793Z,37.47
2018-08-06T11:10:10.804Z,37.49
2018-08-06T11:11:10.818Z,37.36
2018-08-06T11:12:10.829Z,37.33
2018-08-06T11:13:10.929Z,37.03
2018-08-06T11:14:10.955Z,36.76
2018-08-06T11:15:10.866Z,36.77
2018-08-06T11:16:10.904Z,36.64
2018-08-06T11:17:10.949Z,36.55
2018-08-06T11:18:11.115Z,36.79
2018-08-06T11:19:11.156Z,36.86
2018-08-06T11:20:10.968Z,37.29
2018-08-06T11:21:11.732Z,37.75
2018-08-06T11:22:10.966Z,37.67
2018-08-06T11:23:11.002Z,37.58
2018-08-06T11:24:11.146Z,37.33
2018-08-06T11:25:10.993Z,37.23
2018-08-06T11:26:11.061Z,37.26
2018-08-06T11:27:11.020Z,37.30
2018-08-06T11:28:11.037Z,38.05
2018-08-06T11:29:11.043Z,38.54
2018-08-06T11:30:11.064Z,38.86
2018-08-06T11:31:11.071Z,38.97
2018-08-06T11:32:11.119Z,38.62
2018-08-06T11:33:11.106Z,38.49
2018-08-06T11:34:11.153Z,38.76
2018-08-06T11:35:11.121Z,38.95
2018-08-06T11:36:11.501Z,39.17
2018-08-06T11:37:11.727Z,39.29
2018-08-06T11:38:11.193Z,39.34
2018-08-06T11:39:11.220Z,38.95
2018-08-06T11:40:11.255Z,38.28
2018-08-06T11:41:11.275Z,37.89
2018-08-06T11:42:11.269Z,37.71
2018-08-06T11:43:11.330Z,37.97
2018-08-06T11:44:11.238Z,38.06
2018-08-06T11:45:11.245Z,38.14
2018-08-06T11:46:11.277Z,38.06
2018-08-06T11:47:11.277Z,37.96
2018-08-06T11:48:11.311Z,37.94
2018-08-06T11:49:11.307Z,38.12
2018-08-06T11:50:11.316Z,38.21
2018-08-06T11:51:11.329Z,38.04
2018-08-06T11:52:11.340Z,37.80
2018-08-06T11:53:11.377Z,37.65
2018-08-06T11:54:11.395Z,37.47
2018-08-06T11:55:11.446Z,37.18
2018-08-06T11:56:11.404Z,37.26
2018-08-06T11:57:11.470Z,37.07
2018-08-06T11:58:11.435Z,36.96
2018-08-06T11:59:11.479Z,36.74
2018-08-06T12:00:11.444Z,36.77
2018-08-06T12:01:11.457Z,36.81
2018-08-06T12:02:11.467Z,37.17
2018-08-06T12:03:11.498Z,37.78
2018-08-06T12:04:11.507Z,38.24
2018-08-06T12:05:11.530Z,38.79
2018-08-06T12:06:11.521Z,39.21
2018-08-06T12:07:13.189Z,39.52
2018-08-06T12:08:12.192Z,39.65
2018-08-06T12:09:11.565Z,38.83
2018-08-06T12:10:11.598Z,37.94
2018-08-06T12:11:11.638Z,37.10
2018-08-06T12:12:11.605Z,36.55
2018-08-06T12:13:11.615Z,36.14
2018-08-06T12:14:11.646Z,35.74
2018-08-06T12:15:11.671Z,35.71
2018-08-06T12:16:11.655Z,36.04
2018-08-06T12:17:11.676Z,36.37
2018-08-06T12:18:11.690Z,36.99
2018-08-06T12:19:11.713Z,37.47
2018-08-06T12:20:11.724Z,37.99
2018-08-06T12:21:11.743Z,38.19
2018-08-06T12:22:11.748Z,38.52
2018-08-06T12:23:11.761Z,38.54
2018-08-06T12:24:11.755Z,38.61
2018-08-06T12:25:11.770Z,38.65
2018-08-06T12:26:11.801Z,38.54
2018-08-06T12:27:11.796Z,38.38
2018-08-06T12:28:11.814Z,38.28
2018-08-06T12:29:11.851Z,38.08
2018-08-06T12:30:11.832Z,38.06
2018-08-06T12:31:11.844Z,37.90
2018-08-06T12:32:11.871Z,37.87
2018-08-06T12:33:11.887Z,37.87
2018-08-06T12:34:11.880Z,37.82
2018-08-06T12:35:11.896Z,37.84
2018-08-06T12:36:11.921Z,37.67
2018-08-06T12:37:11.910Z,37.75
2018-08-06T12:38:11.976Z,37.97
2018-08-06T12:39:11.938Z,37.99
2018-08-06T12:40:11.951Z,38.04
2018-08-06T12:41:11.965Z,38.31
2018-08-06T12:42:11.976Z,38.30
2018-08-06T12:43:11.983Z,37.99
2018-08-06T12:44:12.034Z,37.35
2018-08-06T12:45:12.007Z,36.95
2018-08-06T12:46:12.037Z,36.39
2018-08-06T12:47:12.031Z,36.20
2018-08-06T12:48:12.041Z,36.00
2018-08-06T12:49:12.062Z,36.33
2018-08-06T12:50:12.071Z,36.40
2018-08-06T12:51:12.078Z,36.59
2018-08-06T12:52:12.112Z,37.03